createdAt,value
2023-01-15T00:00:07.389Z,99.90
2023-01-15T00:02:35.554Z,99.90
2023-01-15T00:05:03.709Z,99.90
2023-01-15T00:07:33.660Z,99.90
2023-01-15T00:10:01.833Z,99.90
2023-01-15T00:12:29.963Z,99.90
2023-01-15T00:14:58.838Z,99.90
2023-01-15T00:17:27.268Z,99.90
2023-01-15T00:19:55.713Z,99.90
2023-01-15T00:22:23.823Z,99.90
2023-01-15T00:25:10.470Z,99.90
2023-01-15T00:27:41.868Z,99.90
2023-01-15T00:30:13.083Z,99.90
2023-01-15T00:32:41.501Z,99.90
2023-01-15T00:35:14.463Z,99.90
2023-01-15T00:37:42.672Z,99.90
2023-01-15T00:40:14.208Z,99.90
2023-01-15T00:42:43.099Z,99.90
2023-01-15T00:45:15.405Z,99.90
2023-01-15T00:47:48.039Z,99.90
2023-01-15T00:50:16.953Z,99.90
2023-01-15T00:52:45.058Z,99.90
2023-01-15T00:55:14.691Z,99.90
2023-01-15T00:57:42.817Z,99.90
2023-01-15T01:00:13.284Z,99.90
2023-01-15T01:02:41.494Z,99.90
2023-01-15T01:05:10.521Z,99.90
2023-01-15T01:07:38.788Z,99.90
2023-01-15T01:10:09.094Z,99.90
2023-01-15T01:12:38.709Z,99.90
2023-01-15T01:15:09.865Z,99.90
2023-01-15T01:17:38.448Z,99.90
2023-01-15T01:20:07.648Z,99.90
2023-01-15T01:22:35.732Z,99.90
2023-01-15T01:25:03.892Z,99.90
2023-01-15T01:27:32.035Z,99.90
2023-01-15T01:30:01.672Z,99.90
2023-01-15T01:32:29.936Z,99.90
2023-01-15T01:34:58.171Z,99.90
2023-01-15T01:37:26.218Z,99.90
2023-01-15T01:39:55.006Z,99.90
2023-01-15T01:42:23.976Z,99.90
2023-01-15T01:45:14.319Z,99.90
2023-01-15T01:47:42.439Z,99.90
2023-01-15T01:50:14.579Z,99.90
2023-01-15T01:52:47.148Z,99.90
2023-01-15T01:55:19.130Z,99.90
2023-01-15T01:57:49.172Z,99.90
2023-01-15T02:00:19.218Z,99.90
2023-01-15T02:02:50.734Z,99.90
2023-01-15T02:05:27.729Z,99.90
2023-01-15T02:07:55.823Z,99.90
2023-01-15T02:10:24.153Z,99.90
2023-01-15T02:12:59.272Z,99.90
2023-01-15T02:15:35.016Z,99.90
2023-01-15T02:18:11.466Z,99.90
2023-01-15T02:20:43.298Z,99.90
2023-01-15T02:23:30.975Z,99.90
2023-01-15T02:26:27.125Z,99.90
2023-01-15T02:28:59.653Z,99.90
2023-01-15T02:31:34.895Z,99.90
2023-01-15T02:34:06.829Z,99.90
2023-01-15T02:36:38.804Z,99.90
2023-01-15T02:39:10.896Z,99.90
2023-01-15T02:41:44.783Z,99.90
2023-01-15T02:44:17.742Z,99.90
2023-01-15T02:46:48.021Z,99.90
2023-01-15T02:49:18.891Z,99.90
2023-01-15T02:51:52.076Z,99.90
2023-01-15T02:54:21.375Z,99.90
2023-01-15T02:56:50.983Z,99.90
2023-01-15T02:59:24.937Z,99.90
2023-01-15T03:01:59.641Z,99.90
2023-01-15T03:04:33.475Z,99.90
2023-01-15T03:07:07.157Z,99.90
2023-01-15T03:09:35.611Z,99.90
2023-01-15T03:12:09.642Z,99.90
2023-01-15T03:14:44.134Z,99.90
2023-01-15T03:17:18.385Z,99.90
2023-01-15T03:19:51.527Z,99.90
2023-01-15T03:22:24.545Z,99.90
2023-01-15T03:24:56.060Z,99.90
2023-01-15T03:27:24.701Z,99.90
2023-01-15T03:30:02.048Z,99.90
2023-01-15T03:32:31.322Z,99.90
2023-01-15T03:35:00.350Z,99.90
2023-01-15T03:37:29.373Z,99.90
2023-01-15T03:39:59.665Z,99.90
2023-01-15T03:42:45.700Z,99.90
2023-01-15T03:45:21.560Z,99.90
2023-01-15T03:47:57.408Z,99.90
2023-01-15T03:50:32.618Z,99.90
2023-01-15T03:53:10.100Z,99.90
2023-01-15T03:55:45.303Z,99.90
2023-01-15T03:58:19.069Z,99.90
2023-01-15T04:00:51.813Z,99.90
2023-01-15T04:03:21.503Z,99.90
2023-01-15T04:05:51.512Z,99.90
2023-01-15T04:08:20.866Z,99.90
2023-01-15T04:10:53.675Z,99.90
2023-01-15T04:13:22.195Z,99.90
2023-01-15T04:15:52.724Z,99.90
2023-01-15T04:18:21.597Z,99.90
2023-01-15T04:20:49.940Z,99.90
2023-01-15T04:23:17.958Z,99.90
2023-01-15T04:25:45.937Z,99.90
2023-01-15T04:28:13.999Z,99.90
2023-01-15T04:30:43.402Z,99.90
2023-01-15T04:33:13.171Z,99.90
2023-01-15T04:35:41.268Z,99.90
2023-01-15T04:38:09.293Z,99.90
2023-01-15T04:40:54.882Z,99.90
2023-01-15T04:43:40.383Z,99.90
2023-01-15T04:46:08.390Z,99.90
2023-01-15T04:48:37.821Z,99.90
2023-01-15T04:51:06.694Z,99.90
2023-01-15T04:53:35.170Z,99.90
2023-01-15T04:56:03.927Z,99.90
2023-01-15T04:58:32.141Z,99.90
2023-01-15T05:01:00.919Z,99.90
2023-01-15T05:03:29.029Z,99.90
2023-01-15T05:06:02.418Z,99.90
2023-01-15T05:08:30.915Z,99.90
2023-01-15T05:11:03.695Z,99.90
2023-01-15T05:13:33.368Z,99.90
2023-01-15T05:16:13.524Z,99.90
2023-01-15T05:18:41.870Z,99.90
2023-01-15T05:21:20.372Z,99.90
2023-01-15T05:23:49.016Z,99.90
2023-01-15T05:26:17.365Z,99.90
2023-01-15T05:28:46.317Z,99.90
2023-01-15T05:31:16.006Z,99.90
2023-01-15T05:33:45.297Z,99.90
2023-01-15T05:36:17.277Z,99.90
2023-01-15T05:38:45.630Z,99.90
2023-01-15T05:41:33.003Z,99.90
2023-01-15T05:44:02.653Z,99.90
2023-01-15T05:46:30.727Z,99.90
2023-01-15T05:49:02.098Z,99.90
2023-01-15T05:51:31.815Z,99.90
2023-01-15T05:53:59.831Z,99.90
2023-01-15T05:56:27.893Z,99.90
2023-01-15T05:58:56.059Z,99.90
2023-01-15T06:01:24.682Z,99.90
2023-01-15T06:03:53.672Z,99.90
2023-01-15T06:06:21.822Z,99.90
2023-01-15T06:08:51.153Z,99.90
2023-01-15T06:11:19.120Z,99.90
2023-01-15T06:13:47.132Z,99.90
2023-01-15T06:16:15.438Z,99.90
2023-01-15T06:18:43.698Z,99.90
2023-01-15T06:21:13.705Z,99.90
2023-01-15T06:23:42.636Z,99.90
2023-01-15T06:26:15.382Z,99.90
2023-01-15T06:28:44.230Z,99.90
2023-01-15T06:31:14.333Z,99.90
2023-01-15T06:33:42.410Z,99.90
2023-01-15T06:36:12.427Z,99.90
2023-01-15T06:38:41.036Z,99.90
2023-01-15T06:41:29.136Z,99.90
2023-01-15T06:44:14.881Z,99.90
2023-01-15T06:47:03.858Z,99.90
2023-01-15T06:49:31.897Z,99.90
2023-01-15T06:51:59.982Z,99.90
2023-01-15T06:54:28.115Z,99.90
2023-01-15T06:56:57.600Z,99.90
2023-01-15T06:59:25.609Z,99.90
2023-01-15T07:01:53.923Z,99.90
2023-01-15T07:04:22.007Z,99.90
2023-01-15T07:06:50.042Z,99.90
2023-01-15T07:09:18.099Z,99.90
2023-01-15T07:11:50.364Z,99.90
2023-01-15T07:14:21.380Z,99.90
2023-01-15T07:16:49.710Z,99.90
2023-01-15T07:19:18.688Z,99.90
2023-01-15T07:21:46.965Z,99.90
2023-01-15T07:24:17.388Z,99.90
2023-01-15T07:26:46.233Z,99.90
2023-01-15T07:29:14.948Z,99.90
2023-01-15T07:31:44.349Z,99.90
2023-01-15T07:34:12.380Z,99.90
2023-01-15T07:36:40.532Z,99.90
2023-01-15T07:39:10.530Z,99.90
2023-01-15T07:41:56.287Z,99.90
2023-01-15T07:44:42.308Z,99.90
2023-01-15T07:47:37.241Z,99.90
2023-01-15T07:50:07.989Z,99.90
2023-01-15T07:52:36.056Z,99.90
2023-01-15T07:55:04.919Z,99.90
2023-01-15T07:57:32.967Z,99.90
2023-01-15T08:00:01.085Z,99.90
2023-01-15T08:02:30.429Z,99.90
2023-01-15T08:04:58.445Z,99.90
2023-01-15T08:07:26.612Z,99.90
2023-01-15T08:09:54.608Z,99.90
2023-01-15T08:12:39.953Z,99.90
2023-01-15T08:15:16.680Z,99.90
2023-01-15T08:17:49.398Z,99.90
2023-01-15T08:20:19.273Z,99.90
2023-01-15T08:22:51.422Z,99.90
2023-01-15T08:25:21.955Z,99.90
2023-01-15T08:27:50.124Z,99.90
2023-01-15T08:30:22.035Z,99.90
2023-01-15T08:32:51.510Z,99.90
2023-01-15T08:35:19.563Z,99.90
2023-01-15T08:37:47.646Z,99.90
2023-01-15T08:40:15.661Z,99.90
2023-01-15T08:42:43.655Z,99.90
2023-01-15T08:45:12.655Z,99.90
2023-01-15T08:47:40.670Z,99.90
2023-01-15T08:50:11.670Z,99.90
2023-01-15T08:52:39.817Z,99.90
2023-01-15T08:55:09.101Z,99.90
2023-01-15T08:57:38.504Z,99.90
2023-01-15T09:00:07.876Z,99.90
2023-01-15T09:02:35.907Z,99.90
2023-01-15T09:05:03.982Z,99.90
2023-01-15T09:07:35.355Z,99.90
2023-01-15T09:10:04.392Z,99.90
2023-01-15T09:12:32.770Z,99.90
2023-01-15T09:15:03.286Z,99.90
2023-01-15T09:17:32.605Z,99.90
2023-01-15T09:20:02.975Z,99.90
2023-01-15T09:22:31.283Z,99.90
2023-01-15T09:25:00.673Z,99.90
2023-01-15T09:27:29.280Z,99.90
2023-01-15T09:29:58.116Z,99.90
2023-01-15T09:32:26.269Z,99.90
2023-01-15T09:34:54.315Z,99.90
2023-01-15T09:37:22.552Z,99.90
2023-01-15T09:39:50.537Z,99.90
2023-01-15T09:42:37.040Z,99.90
2023-01-15T09:45:25.762Z,99.90
2023-01-15T09:48:18.026Z,99.90
2023-01-15T09:50:55.285Z,99.90
2023-01-15T09:53:48.144Z,99.90
2023-01-15T09:56:22.283Z,99.90
2023-01-15T09:58:53.186Z,99.90
2023-01-15T10:01:28.616Z,99.90
2023-01-15T10:04:03.733Z,99.90
2023-01-15T10:06:36.824Z,99.90
2023-01-15T10:09:13.956Z,99.90
2023-01-15T10:12:02.592Z,99.90
2023-01-15T10:14:46.735Z,99.90
2023-01-15T10:17:22.100Z,99.90
2023-01-15T10:19:50.289Z,99.90
2023-01-15T10:22:33.575Z,99.90
2023-01-15T10:25:08.718Z,99.90
2023-01-15T10:27:38.264Z,99.90
2023-01-15T10:30:16.382Z,99.90
2023-01-15T10:33:01.381Z,99.90
2023-01-15T10:35:45.805Z,99.90
2023-01-15T10:38:23.824Z,99.90
2023-01-15T10:41:32.874Z,99.90
2023-01-15T10:44:06.466Z,99.90
2023-01-15T10:49:32.447Z,99.90
2023-01-15T10:52:07.050Z,99.90
2023-01-15T10:54:39.389Z,99.90
2023-01-15T10:57:12.692Z,99.90
2023-01-15T10:59:46.373Z,99.90
2023-01-15T11:02:27.596Z,99.90
2023-01-15T11:04:57.157Z,99.90
2023-01-15T11:07:30.092Z,99.80
2023-01-15T11:10:07.978Z,99.60
2023-01-15T11:12:54.220Z,97.90
2023-01-15T11:15:43.746Z,96.60
2023-01-15T11:18:35.767Z,96.40
2023-01-15T11:21:11.538Z,96.30
2023-01-15T11:23:42.870Z,94.40
2023-01-15T11:26:17.960Z,94.40
2023-01-15T11:28:46.962Z,94.50
2023-01-15T11:31:16.058Z,94.60
2023-01-15T11:33:47.040Z,95.60
2023-01-15T11:36:26.928Z,95.00
2023-01-15T11:38:55.033Z,95.80
2023-01-15T11:41:25.215Z,96.10
2023-01-15T11:44:15.334Z,96.10
2023-01-15T11:47:01.409Z,96.10
2023-01-15T11:49:46.893Z,96.70
2023-01-15T11:52:20.563Z,96.30
2023-01-15T11:54:52.878Z,96.70
2023-01-15T11:57:27.888Z,96.50
2023-01-15T11:59:56.152Z,96.70
2023-01-15T12:02:36.499Z,96.30
2023-01-15T12:05:05.944Z,96.50
2023-01-15T12:07:40.718Z,97.70
2023-01-15T12:10:21.769Z,98.10
2023-01-15T12:13:05.855Z,98.50
2023-01-15T12:15:42.607Z,98.60
2023-01-15T12:18:32.756Z,98.60
2023-01-15T12:21:06.303Z,99.60
2023-01-15T12:23:55.619Z,99.00
2023-01-15T12:26:28.725Z,99.80
2023-01-15T12:29:05.147Z,99.30
2023-01-15T12:31:38.124Z,99.90
2023-01-15T12:34:16.752Z,99.70
2023-01-15T12:36:48.949Z,99.90
2023-01-15T12:39:23.069Z,99.70
2023-01-15T12:42:13.424Z,99.50
2023-01-15T12:45:05.100Z,99.90
2023-01-15T12:47:41.588Z,99.90
2023-01-15T12:50:25.021Z,99.90
2023-01-15T12:53:00.147Z,99.90
2023-01-15T12:55:32.659Z,98.60
2023-01-15T12:58:03.752Z,99.10
2023-01-15T13:00:36.863Z,99.20
2023-01-15T13:03:18.862Z,98.90
2023-01-15T13:05:50.059Z,98.90
2023-01-15T13:08:25.203Z,98.50
2023-01-15T13:10:54.686Z,99.00
2023-01-15T13:13:24.799Z,99.40
2023-01-15T13:16:05.838Z,99.30
2023-01-15T13:18:48.611Z,98.90
2023-01-15T13:21:20.323Z,99.10
2023-01-15T13:24:09.713Z,99.20
2023-01-15T13:27:07.136Z,99.40
2023-01-15T13:29:45.174Z,99.50
2023-01-15T13:32:19.306Z,99.70
2023-01-15T13:34:51.314Z,99.70
2023-01-15T13:37:28.091Z,99.00
2023-01-15T13:40:01.092Z,99.30
2023-01-15T13:42:35.611Z,99.50
2023-01-15T13:45:26.515Z,99.60
2023-01-15T13:47:58.080Z,99.50
2023-01-15T13:50:30.993Z,99.90
2023-01-15T13:53:06.939Z,99.70
2023-01-15T13:55:37.975Z,99.80
2023-01-15T13:58:22.562Z,99.60
2023-01-15T14:01:01.471Z,99.90
2023-01-15T14:03:31.072Z,99.70
2023-01-15T14:06:00.907Z,99.50
2023-01-15T14:08:37.169Z,99.40
2023-01-15T14:11:05.521Z,99.90
2023-01-15T14:13:51.597Z,99.70
2023-01-15T14:16:30.567Z,99.90
2023-01-15T14:19:26.135Z,99.90
2023-01-15T14:22:08.330Z,99.70
2023-01-15T14:25:09.430Z,99.80
2023-01-15T14:28:03.443Z,99.80
2023-01-15T14:31:20.088Z,99.90
2023-01-15T14:33:59.734Z,99.90
2023-01-15T14:36:30.855Z,99.90
2023-01-15T14:39:01.896Z,99.90
2023-01-15T14:41:33.642Z,99.90
2023-01-15T14:44:02.793Z,99.90
2023-01-15T14:46:35.062Z,99.90
2023-01-15T14:49:03.840Z,99.90
2023-01-15T14:51:36.599Z,99.90
2023-01-15T14:54:08.346Z,99.90
2023-01-15T14:56:39.476Z,99.90
2023-01-15T14:59:15.407Z,99.90
2023-01-15T15:01:52.125Z,99.90
2023-01-15T15:04:25.216Z,99.90
2023-01-15T15:06:56.632Z,99.90
2023-01-15T15:09:35.715Z,99.90
2023-01-15T15:12:20.167Z,99.90
2023-01-15T15:14:55.762Z,99.90
2023-01-15T15:17:33.281Z,99.90
2023-01-15T15:20:16.828Z,99.90
2023-01-15T15:22:47.740Z,99.90
2023-01-15T15:25:22.673Z,99.90
2023-01-15T15:27:50.829Z,99.90
2023-01-15T15:30:21.289Z,99.90
2023-01-15T15:32:52.890Z,99.90
2023-01-15T15:35:27.021Z,99.90
2023-01-15T15:38:01.526Z,99.90
2023-01-15T15:40:34.362Z,99.90
2023-01-15T15:43:28.971Z,99.90
2023-01-15T15:46:18.907Z,99.90
2023-01-15T15:48:56.246Z,99.90
2023-01-15T15:51:32.096Z,99.90
2023-01-15T15:54:21.805Z,99.90
2023-01-15T15:56:56.711Z,99.90
2023-01-15T15:59:33.920Z,99.90
2023-01-15T16:02:17.465Z,99.90
2023-01-15T16:04:49.067Z,99.90
2023-01-15T16:07:25.319Z,99.90
2023-01-15T16:09:55.894Z,99.90
2023-01-15T16:12:24.954Z,99.90
2023-01-15T16:14:56.900Z,99.90
2023-01-15T16:17:27.004Z,99.90
2023-01-15T16:19:57.718Z,99.90
2023-01-15T16:22:29.311Z,99.90
2023-01-15T16:24:59.526Z,99.90
2023-01-15T16:27:35.883Z,99.90
2023-01-15T16:30:05.910Z,99.90
2023-01-15T16:32:35.999Z,99.90
2023-01-15T16:35:16.213Z,99.90
2023-01-15T16:37:48.071Z,99.90
2023-01-15T16:40:29.048Z,99.90
2023-01-15T16:43:10.549Z,99.90
2023-01-15T16:45:54.811Z,99.90
2023-01-15T16:48:30.130Z,99.90
2023-01-15T16:51:20.758Z,99.90
2023-01-15T16:53:49.180Z,99.90
2023-01-15T16:56:28.456Z,99.90
2023-01-15T16:58:57.099Z,99.90
2023-01-15T17:01:38.523Z,99.90
2023-01-15T17:04:20.996Z,99.90
2023-01-15T17:06:59.308Z,99.90
2023-01-15T17:09:29.183Z,99.90
2023-01-15T17:11:58.949Z,99.90
2023-01-15T17:14:30.369Z,99.90
2023-01-15T17:17:26.807Z,99.90
2023-01-15T17:19:58.274Z,99.90
2023-01-15T17:22:30.566Z,99.90
2023-01-15T17:25:01.753Z,99.90
2023-01-15T17:27:31.271Z,99.90
2023-01-15T17:29:59.983Z,99.90
2023-01-15T17:32:35.991Z,99.90
2023-01-15T17:35:06.597Z,99.90
2023-01-15T17:37:37.115Z,99.90
2023-01-15T17:40:06.376Z,99.90
2023-01-15T17:42:34.507Z,99.90
2023-01-15T17:45:02.945Z,99.90
2023-01-15T17:47:31.254Z,99.90
2023-01-15T17:49:59.709Z,99.90
2023-01-15T17:52:28.142Z,99.90
2023-01-15T17:55:14.845Z,99.90
2023-01-15T17:58:00.162Z,99.90
2023-01-15T18:00:48.439Z,99.90
2023-01-15T18:03:36.719Z,99.90
2023-01-15T18:06:06.040Z,99.90
2023-01-15T18:08:34.720Z,99.90
2023-01-15T18:11:04.348Z,99.90
2023-01-15T18:13:32.587Z,99.90
2023-01-15T18:16:00.826Z,99.90
2023-01-15T18:18:29.241Z,99.90
2023-01-15T18:20:57.677Z,99.90
2023-01-15T18:23:26.630Z,99.90
2023-01-15T18:25:54.810Z,99.90
2023-01-15T18:28:24.736Z,99.90
2023-01-15T18:30:53.271Z,99.90
2023-01-15T18:33:21.919Z,99.90
2023-01-15T18:35:50.718Z,99.90
2023-01-15T18:38:19.242Z,99.90
2023-01-15T18:40:47.342Z,99.90
2023-01-15T18:43:32.582Z,99.90
2023-01-15T18:46:31.172Z,99.90
2023-01-15T18:48:59.413Z,99.90
2023-01-15T18:51:28.323Z,99.90
2023-01-15T18:53:56.879Z,99.90
2023-01-15T18:56:39.674Z,99.90
2023-01-15T18:59:09.835Z,99.90
2023-01-15T19:01:41.375Z,99.90
2023-01-15T19:04:11.177Z,99.90
2023-01-15T19:06:41.399Z,99.90
2023-01-15T19:09:13.827Z,99.90
2023-01-15T19:11:42.040Z,99.90
2023-01-15T19:14:27.964Z,99.90
2023-01-15T19:17:15.225Z,99.90
2023-01-15T19:19:43.527Z,99.90
2023-01-15T19:22:30.097Z,99.90
2023-01-15T19:24:58.354Z,99.90
2023-01-15T19:27:26.619Z,99.90
2023-01-15T19:29:54.928Z,99.90
2023-01-15T19:32:24.552Z,99.90
2023-01-15T19:34:53.198Z,99.90
2023-01-15T19:37:22.419Z,99.90
2023-01-15T19:39:50.578Z,99.90
2023-01-15T19:42:36.634Z,99.90
2023-01-15T19:45:23.478Z,99.90
2023-01-15T19:48:11.486Z,99.90
2023-01-15T19:50:42.705Z,99.90
2023-01-15T19:53:12.753Z,99.90
2023-01-15T19:55:44.339Z,99.90
2023-01-15T19:58:15.190Z,99.90
2023-01-15T20:00:48.480Z,99.90
2023-01-15T20:03:18.758Z,99.90
2023-01-15T20:05:48.437Z,99.90
2023-01-15T20:08:18.275Z,99.90
2023-01-15T20:10:49.845Z,99.90
2023-01-15T20:13:38.268Z,99.90
2023-01-15T20:16:12.276Z,99.90
2023-01-15T20:18:42.817Z,99.90
2023-01-15T20:21:14.618Z,99.90
2023-01-15T20:23:43.825Z,99.90
2023-01-15T20:26:15.894Z,99.90
2023-01-15T20:28:47.969Z,99.90
2023-01-15T20:31:18.017Z,99.90
2023-01-15T20:33:49.968Z,99.90
2023-01-15T20:36:18.698Z,99.90
2023-01-15T20:38:47.756Z,99.90
2023-01-15T20:41:33.700Z,99.90
2023-01-15T20:44:19.422Z,99.90
2023-01-15T20:46:47.698Z,99.90
2023-01-15T20:49:27.034Z,99.90
2023-01-15T20:51:57.068Z,99.90
2023-01-15T20:54:26.763Z,99.90
2023-01-15T20:56:55.077Z,99.90
2023-01-15T20:59:23.382Z,99.90
2023-01-15T21:01:54.809Z,99.90
2023-01-15T21:04:25.216Z,99.90
2023-01-15T21:06:53.529Z,99.90
2023-01-15T21:09:21.830Z,99.90
2023-01-15T21:11:50.116Z,99.90
2023-01-15T21:14:18.328Z,99.90
2023-01-15T21:16:46.576Z,99.90
2023-01-15T21:19:14.810Z,99.90
2023-01-15T21:21:44.454Z,99.90
2023-01-15T21:24:12.732Z,99.90
2023-01-15T21:26:41.062Z,99.90
2023-01-15T21:29:09.518Z,99.90
2023-01-15T21:31:38.052Z,99.90
2023-01-15T21:34:07.144Z,99.90
2023-01-15T21:36:35.590Z,99.90
2023-01-15T21:39:05.901Z,99.90
2023-01-15T21:41:51.372Z,99.90
2023-01-15T21:44:33.668Z,99.90
2023-01-15T21:47:04.051Z,99.90
2023-01-15T21:49:33.470Z,99.90
2023-01-15T21:52:02.272Z,99.90
2023-01-15T21:54:32.931Z,99.90
2023-01-15T21:57:01.593Z,99.90
2023-01-15T21:59:29.980Z,99.90
2023-01-15T22:01:59.719Z,99.90
2023-01-15T22:04:29.385Z,99.90
2023-01-15T22:06:58.197Z,99.90
2023-01-15T22:09:26.882Z,99.90
2023-01-15T22:11:57.411Z,99.90
2023-01-15T22:14:28.485Z,99.90
2023-01-15T22:16:58.066Z,99.90
2023-01-15T22:19:28.404Z,99.90
2023-01-15T22:21:58.768Z,99.90
2023-01-15T22:24:28.283Z,99.90
2023-01-15T22:26:58.727Z,99.90
2023-01-15T22:29:28.331Z,99.90
2023-01-15T22:31:56.721Z,99.90
2023-01-15T22:34:26.119Z,99.90
2023-01-15T22:36:55.335Z,99.90
2023-01-15T22:39:25.029Z,99.90
2023-01-15T22:42:11.121Z,99.90
2023-01-15T22:44:43.373Z,99.90
2023-01-15T22:47:11.840Z,99.90
2023-01-15T22:49:39.981Z,99.90
2023-01-15T22:52:08.177Z,99.90
2023-01-15T22:54:36.548Z,99.90
2023-01-15T22:57:05.365Z,99.90
2023-01-15T22:59:33.463Z,99.90
2023-01-15T23:02:03.386Z,99.90
2023-01-15T23:04:31.780Z,99.90
2023-01-15T23:06:59.905Z,99.90
2023-01-15T23:09:28.256Z,99.90
2023-01-15T23:11:56.350Z,99.90
2023-01-15T23:14:24.608Z,99.90
2023-01-15T23:16:52.727Z,99.90
2023-01-15T23:19:22.329Z,99.90
2023-01-15T23:21:50.511Z,99.90
2023-01-15T23:24:18.539Z,99.90
2023-01-15T23:26:46.610Z,99.90
2023-01-15T23:29:14.760Z,99.90
2023-01-15T23:31:42.826Z,99.90
2023-01-15T23:34:11.400Z,99.90
2023-01-15T23:36:40.971Z,99.90
2023-01-15T23:39:09.398Z,99.90
2023-01-15T23:41:55.080Z,99.90
2023-01-15T23:44:41.152Z,99.90
2023-01-15T23:47:09.453Z,99.90
2023-01-15T23:49:37.487Z,99.90
2023-01-15T23:52:07.752Z,99.90
2023-01-15T23:54:35.866Z,99.90
2023-01-15T23:57:04.063Z,99.90
2023-01-15T23:59:32.305Z,99.90
